Anahola, Hawaii
Current Conditions -  °F | °C
As of 7:53 AM on Saturday 20 Dec 2014 (Local Time) from PHLI Reporting Station
Clear Clear  
Wind Chill: 70°   Ceiling: Unl
Heat Index: 70°   Visibility: 10mi
Dew Point: 66°   Wind: 6mph
Humidity: 87%   Direction: 260°W
Pressure: 30.06"   Gusts: NA
Location:  22.14°N, 159.31°W
Report Text: PHLI 201753Z 26005KT 10SM CLR 21/19 A3006 RMK AO2 SLP178 T02110189 10244 20200 53016
Loading
Personal Weather Stations






























Interactive Weather Map New forecast layout! Learn more

10-Day Weather Forecast

Advertisements
Track Severe Weather on mobile